ホノルル の空港の天気 - METARとTAF

ホノルル国際空港 ( PHNL / HNL ) - アメリカ ハワイ州ホノルル
飛行場実況気象(Metar)
観測時間01/19 18:53 HST (01/20 04:53 UTC)
風向・風速東北東 5m/s
視程10km以上
天気現象
少しの雲 雲底高度 730m
全天の4割程度の雲 雲底高度 1400m
全天の8割程度の雲 雲底高度 1680m
気温25℃
湿度69%
気圧1017.9hPa
METARPHNL 200453Z 07010KT 10SM FEW024 SCT046 BKN055 25/19 A3006 RMK AO2 SLP179 VCSH E T02500189
過去の天気等 Google飛行場航空写真 Wunderground天気予報

過去48時間のMETAR

飛行場予報(TAF)
発表時間: 1/19 17:06 HST (1/20 03:06 UTC)
予報対象時間: 19日17時 HST ~ 20日20時 HST
風向・風速東北東 5m/s
視程10km以上
天気現象周辺でしゅう雨
全天の4割程度の雲 雲底高度 760m
全天の8割程度の雲 雲底高度 1,220m
20日10時 HST から
風向・風速東南東 6m/s
視程10km以上
天気現象周辺でしゅう雨
全天の4割程度の雲 雲底高度 760m
全天の8割程度の雲 雲底高度 1,220m
20日19時 HST から
風向・風速東北東 4m/s
視程10km以上
天気現象周辺でしゅう雨
少しの雲 雲底高度 760m
全天の4割程度の雲 雲底高度 1,220m
PHNL 200306Z 2003/2106 06010KT P6SM VCSH SCT025 BKN040
FM202000 11011KT P6SM VCSH SCT025 BKN040
FM210500 06007KT P6SM VCSH FEW025 SCT040